KEBS

Webster City Municipal Airport

Webster City, Iowa, USA
METAR KEBS 181615Z AUTO 21015KT 9SM FEW013 01/M00 A2986 RMK AO2
Observed Flight Rules
Dec-18 @ 16:15 UTC (10 minutes ago) Visual Flight Rules
Wind Visibility Clouds
210° at 15 knots 9 miles
  • Few at 1,300' AGL
Temperatures Readings
Current 1°C / 34°F
Dewpoint 0°C / 32°F
Humidity 93%
Altimeter 29.86" Hg
Pressure 1011 hPa
Elevation 342
METAR KEBS 181615Z AUTO 21015KT 9SM FEW013 01/M00 A2986 RMK AO2
Observed Flight Rules
Dec-18 @ 16:15 UTC
(10 minutes ago)
VFR
Wind Visibility
210° at 15 knots 9 miles
Clouds
  • Few at 1,300' AGL
Temperature Dewpoint
1°C / 34°F 0°C / 32°F
Humidity Altimeter Pressure
93% 29.86" Hg 1011 hPa